sensor_id;sensor_type;location;lat;lon;timestamp;temperature;humidity
20057;DHT22;10189;49.546;7.906;2022-10-22T00:01:34;12.10;99.90
20057;DHT22;10189;49.546;7.906;2022-10-22T00:04:01;12.00;99.90
20057;DHT22;10189;49.546;7.906;2022-10-22T00:06:27;12.00;99.90
20057;DHT22;10189;49.546;7.906;2022-10-22T00:08:53;12.00;99.90
20057;DHT22;10189;49.546;7.906;2022-10-22T00:11:19;12.00;99.90
20057;DHT22;10189;49.546;7.906;2022-10-22T00:13:46;11.90;99.90
20057;DHT22;10189;49.546;7.906;2022-10-22T00:16:13;12.00;99.90
20057;DHT22;10189;49.546;7.906;2022-10-22T00:18:39;12.00;99.90
20057;DHT22;10189;49.546;7.906;2022-10-22T00:21:06;12.00;99.90
20057;DHT22;10189;49.546;7.906;2022-10-22T00:23:33;12.00;99.90
20057;DHT22;10189;49.546;7.906;2022-10-22T00:25:59;12.20;99.90
20057;DHT22;10189;49.546;7.906;2022-10-22T00:28:25;12.20;99.90
20057;DHT22;10189;49.546;7.906;2022-10-22T00:30:56;12.20;99.90
20057;DHT22;10189;49.546;7.906;2022-10-22T00:33:24;12.20;99.90
20057;DHT22;10189;49.546;7.906;2022-10-22T00:35:51;12.20;99.90
20057;DHT22;10189;49.546;7.906;2022-10-22T00:38:17;12.20;99.90
20057;DHT22;10189;49.546;7.906;2022-10-22T00:40:43;12.20;99.90
20057;DHT22;10189;49.546;7.906;2022-10-22T00:43:15;12.20;99.90
20057;DHT22;10189;49.546;7.906;2022-10-22T00:45:43;12.30;99.90
20057;DHT22;10189;49.546;7.906;2022-10-22T00:48:13;12.30;99.90
20057;DHT22;10189;49.546;7.906;2022-10-22T00:50:58;12.40;99.90
20057;DHT22;10189;49.546;7.906;2022-10-22T00:53:40;12.40;99.90
20057;DHT22;10189;49.546;7.906;2022-10-22T00:56:10;12.30;99.90
20057;DHT22;10189;49.546;7.906;2022-10-22T00:58:42;12.40;99.90
20057;DHT22;10189;49.546;7.906;2022-10-22T01:01:18;12.40;99.90
20057;DHT22;10189;49.546;7.906;2022-10-22T01:03:47;12.50;99.90
20057;DHT22;10189;49.546;7.906;2022-10-22T01:06:23;12.50;99.90
20057;DHT22;10189;49.546;7.906;2022-10-22T01:09:03;12.50;99.90
20057;DHT22;10189;49.546;7.906;2022-10-22T01:17:39;12.50;99.90
20057;DHT22;10189;49.546;7.906;2022-10-22T01:29:12;12.70;99.90
20057;DHT22;10189;49.546;7.906;2022-10-22T01:31:47;12.70;99.90
20057;DHT22;10189;49.546;7.906;2022-10-22T01:34:21;12.80;99.90
20057;DHT22;10189;49.546;7.906;2022-10-22T01:36:50;12.80;99.90
20057;DHT22;10189;49.546;7.906;2022-10-22T01:39:18;12.80;99.90
20057;DHT22;10189;49.546;7.906;2022-10-22T01:41:45;12.80;99.90
20057;DHT22;10189;49.546;7.906;2022-10-22T01:44:26;12.80;99.90
20057;DHT22;10189;49.546;7.906;2022-10-22T01:50:34;12.90;99.90
20057;DHT22;10189;49.546;7.906;2022-10-22T01:59:14;13.10;99.90
20057;DHT22;10189;49.546;7.906;2022-10-22T02:02:04;13.10;99.90
20057;DHT22;10189;49.546;7.906;2022-10-22T02:04:59;13.10;99.90
20057;DHT22;10189;49.546;7.906;2022-10-22T02:07:47;13.10;99.90
20057;DHT22;10189;49.546;7.906;2022-10-22T02:10:17;13.10;99.90
20057;DHT22;10189;49.546;7.906;2022-10-22T02:12:47;13.10;99.90
20057;DHT22;10189;49.546;7.906;2022-10-22T02:15:18;13.10;99.90
20057;DHT22;10189;49.546;7.906;2022-10-22T02:17:46;13.20;99.90
20057;DHT22;10189;49.546;7.906;2022-10-22T02:20:18;13.20;99.90
20057;DHT22;10189;49.546;7.906;2022-10-22T02:22:49;13.10;99.90
20057;DHT22;10189;49.546;7.906;2022-10-22T02:25:16;13.10;99.90
20057;DHT22;10189;49.546;7.906;2022-10-22T02:28:01;13.10;99.90
20057;DHT22;10189;49.546;7.906;2022-10-22T02:30:36;13.10;99.60
20057;DHT22;10189;49.546;7.906;2022-10-22T02:33:27;13.00;99.90
20057;DHT22;10189;49.546;7.906;2022-10-22T02:35:57;13.00;99.90
20057;DHT22;10189;49.546;7.906;2022-10-22T02:38:25;13.00;99.90
20057;DHT22;10189;49.546;7.906;2022-10-22T02:40:52;13.00;99.90
20057;DHT22;10189;49.546;7.906;2022-10-22T02:43:18;13.00;99.90
20057;DHT22;10189;49.546;7.906;2022-10-22T02:45:45;13.00;99.30
20057;DHT22;10189;49.546;7.906;2022-10-22T02:48:11;12.90;99.10
20057;DHT22;10189;49.546;7.906;2022-10-22T02:50:37;12.90;98.60
20057;DHT22;10189;49.546;7.906;2022-10-22T02:53:03;12.90;98.80
20057;DHT22;10189;49.546;7.906;2022-10-22T02:55:29;12.90;98.40
20057;DHT22;10189;49.546;7.906;2022-10-22T02:57:55;12.90;97.00
20057;DHT22;10189;49.546;7.906;2022-10-22T03:00:21;12.90;97.20
20057;DHT22;10189;49.546;7.906;2022-10-22T03:02:47;12.90;97.60
20057;DHT22;10189;49.546;7.906;2022-10-22T03:05:13;12.90;97.60
20057;DHT22;10189;49.546;7.906;2022-10-22T03:07:38;12.90;97.80
20057;DHT22;10189;49.546;7.906;2022-10-22T03:10:05;12.90;97.50
20057;DHT22;10189;49.546;7.906;2022-10-22T03:12:31;12.90;97.50
20057;DHT22;10189;49.546;7.906;2022-10-22T03:14:57;12.80;98.00
20057;DHT22;10189;49.546;7.906;2022-10-22T03:17:23;12.80;98.00
20057;DHT22;10189;49.546;7.906;2022-10-22T03:19:49;12.80;98.30
20057;DHT22;10189;49.546;7.906;2022-10-22T03:22:22;12.70;98.30
20057;DHT22;10189;49.546;7.906;2022-10-22T03:24:54;12.60;98.70
20057;DHT22;10189;49.546;7.906;2022-10-22T03:27:23;12.60;98.50
20057;DHT22;10189;49.546;7.906;2022-10-22T03:29:51;12.50;98.90
20057;DHT22;10189;49.546;7.906;2022-10-22T03:32:17;12.50;98.80
20057;DHT22;10189;49.546;7.906;2022-10-22T03:34:44;12.40;99.10
20057;DHT22;10189;49.546;7.906;2022-10-22T03:37:10;12.40;99.20
20057;DHT22;10189;49.546;7.906;2022-10-22T03:39:36;12.30;99.20
20057;DHT22;10189;49.546;7.906;2022-10-22T03:42:04;12.10;99.70
20057;DHT22;10189;49.546;7.906;2022-10-22T03:44:32;12.10;99.90
20057;DHT22;10189;49.546;7.906;2022-10-22T03:47:00;12.00;99.90
20057;DHT22;10189;49.546;7.906;2022-10-22T03:49:26;12.00;99.90
20057;DHT22;10189;49.546;7.906;2022-10-22T03:51:52;11.90;99.90
20057;DHT22;10189;49.546;7.906;2022-10-22T03:54:18;11.90;99.90
20057;DHT22;10189;49.546;7.906;2022-10-22T03:56:44;11.90;99.90
20057;DHT22;10189;49.546;7.906;2022-10-22T03:59:10;11.80;99.90
20057;DHT22;10189;49.546;7.906;2022-10-22T04:01:37;11.90;99.90
20057;DHT22;10189;49.546;7.906;2022-10-22T04:04:03;11.90;99.90
20057;DHT22;10189;49.546;7.906;2022-10-22T04:06:29;11.90;99.90
20057;DHT22;10189;49.546;7.906;2022-10-22T04:08:55;11.90;99.90
20057;DHT22;10189;49.546;7.906;2022-10-22T04:11:21;11.80;99.90
20057;DHT22;10189;49.546;7.906;2022-10-22T04:13:47;11.80;99.90
20057;DHT22;10189;49.546;7.906;2022-10-22T04:16:16;11.70;99.90
20057;DHT22;10189;49.546;7.906;2022-10-22T04:18:45;11.70;99.90
20057;DHT22;10189;49.546;7.906;2022-10-22T04:21:13;11.60;99.90
20057;DHT22;10189;49.546;7.906;2022-10-22T04:23:49;11.60;99.90
20057;DHT22;10189;49.546;7.906;2022-10-22T04:26:17;11.60;99.90
20057;DHT22;10189;49.546;7.906;2022-10-22T04:28:45;11.60;99.90
20057;DHT22;10189;49.546;7.906;2022-10-22T04:31:14;11.60;99.90
20057;DHT22;10189;49.546;7.906;2022-10-22T04:33:43;11.60;99.90
20057;DHT22;10189;49.546;7.906;2022-10-22T04:36:11;11.60;99.90
20057;DHT22;10189;49.546;7.906;2022-10-22T04:38:43;11.60;99.90
20057;DHT22;10189;49.546;7.906;2022-10-22T04:43:44;11.50;99.90
20057;DHT22;10189;49.546;7.906;2022-10-22T04:46:12;11.40;99.90
20057;DHT22;10189;49.546;7.906;2022-10-22T04:48:40;11.40;99.90
20057;DHT22;10189;49.546;7.906;2022-10-22T04:51:10;11.40;99.90
20057;DHT22;10189;49.546;7.906;2022-10-22T04:53:37;11.40;99.90
20057;DHT22;10189;49.546;7.906;2022-10-22T04:56:23;11.40;99.90
20057;DHT22;10189;49.546;7.906;2022-10-22T04:58:54;11.40;99.90
20057;DHT22;10189;49.546;7.906;2022-10-22T05:01:27;11.30;99.90
20057;DHT22;10189;49.546;7.906;2022-10-22T05:03:57;11.30;99.90
20057;DHT22;10189;49.546;7.906;2022-10-22T05:06:24;11.20;99.90
20057;DHT22;10189;49.546;7.906;2022-10-22T05:08:56;11.10;99.90
20057;DHT22;10189;49.546;7.906;2022-10-22T05:11:27;11.10;99.90
20057;DHT22;10189;49.546;7.906;2022-10-22T05:14:00;11.10;99.90
20057;DHT22;10189;49.546;7.906;2022-10-22T05:16:28;11.00;99.90
20057;DHT22;10189;49.546;7.906;2022-10-22T05:18:56;11.00;99.90
20057;DHT22;10189;49.546;7.906;2022-10-22T05:21:23;10.90;99.90
20057;DHT22;10189;49.546;7.906;2022-10-22T05:23:50;10.80;99.90
20057;DHT22;10189;49.546;7.906;2022-10-22T05:26:18;10.70;99.90
20057;DHT22;10189;49.546;7.906;2022-10-22T05:28:46;10.80;99.90
20057;DHT22;10189;49.546;7.906;2022-10-22T05:31:14;10.70;99.90
20057;DHT22;10189;49.546;7.906;2022-10-22T05:33:42;10.60;99.90
20057;DHT22;10189;49.546;7.906;2022-10-22T05:36:12;10.50;99.90
20057;DHT22;10189;49.546;7.906;2022-10-22T05:38:41;10.50;99.90
20057;DHT22;10189;49.546;7.906;2022-10-22T05:41:12;10.40;99.90
20057;DHT22;10189;49.546;7.906;2022-10-22T05:43:40;10.30;99.90
20057;DHT22;10189;49.546;7.906;2022-10-22T05:46:08;10.20;99.90
20057;DHT22;10189;49.546;7.906;2022-10-22T05:48:36;10.20;99.90
20057;DHT22;10189;49.546;7.906;2022-10-22T05:51:10;10.10;99.90
20057;DHT22;10189;49.546;7.906;2022-10-22T05:53:40;10.10;99.90
20057;DHT22;10189;49.546;7.906;2022-10-22T05:56:12;10.10;99.90
20057;DHT22;10189;49.546;7.906;2022-10-22T05:58:40;10.10;99.90
20057;DHT22;10189;49.546;7.906;2022-10-22T06:01:24;10.10;99.90
20057;DHT22;10189;49.546;7.906;2022-10-22T06:03:53;10.00;99.90
20057;DHT22;10189;49.546;7.906;2022-10-22T06:06:41;10.00;99.90
20057;DHT22;10189;49.546;7.906;2022-10-22T06:09:27;10.00;99.90
20057;DHT22;10189;49.546;7.906;2022-10-22T06:11:56;10.00;99.90
20057;DHT22;10189;49.546;7.906;2022-10-22T06:14:23;10.00;99.90
20057;DHT22;10189;49.546;7.906;2022-10-22T06:16:50;9.90;99.90
20057;DHT22;10189;49.546;7.906;2022-10-22T06:19:19;10.00;99.90
20057;DHT22;10189;49.546;7.906;2022-10-22T06:21:47;10.00;99.90
20057;DHT22;10189;49.546;7.906;2022-10-22T06:24:13;10.00;99.90
20057;DHT22;10189;49.546;7.906;2022-10-22T06:26:40;10.10;99.90
20057;DHT22;10189;49.546;7.906;2022-10-22T06:29:06;10.10;99.90
20057;DHT22;10189;49.546;7.906;2022-10-22T06:31:33;10.00;99.90
20057;DHT22;10189;49.546;7.906;2022-10-22T06:34:04;10.00;99.90
20057;DHT22;10189;49.546;7.906;2022-10-22T06:36:30;9.90;99.90
20057;DHT22;10189;49.546;7.906;2022-10-22T06:38:56;9.90;99.90
20057;DHT22;10189;49.546;7.906;2022-10-22T06:41:23;9.90;99.90
20057;DHT22;10189;49.546;7.906;2022-10-22T06:43:50;9.90;99.90
20057;DHT22;10189;49.546;7.906;2022-10-22T06:46:19;9.90;99.90
20057;DHT22;10189;49.546;7.906;2022-10-22T06:48:50;9.90;99.90
20057;DHT22;10189;49.546;7.906;2022-10-22T06:51:20;9.90;99.90
20057;DHT22;10189;49.546;7.906;2022-10-22T06:53:46;9.90;99.90
20057;DHT22;10189;49.546;7.906;2022-10-22T06:56:17;9.90;99.90
20057;DHT22;10189;49.546;7.906;2022-10-22T06:58:49;10.00;99.90
20057;DHT22;10189;49.546;7.906;2022-10-22T07:01:18;10.10;99.90
20057;DHT22;10189;49.546;7.906;2022-10-22T07:03:46;10.20;99.90
20057;DHT22;10189;49.546;7.906;2022-10-22T07:06:13;10.20;99.90
20057;DHT22;10189;49.546;7.906;2022-10-22T07:08:40;10.20;99.90
20057;DHT22;10189;49.546;7.906;2022-10-22T07:11:18;10.20;99.90
20057;DHT22;10189;49.546;7.906;2022-10-22T07:13:47;10.20;99.90
20057;DHT22;10189;49.546;7.906;2022-10-22T07:16:15;10.20;99.90
20057;DHT22;10189;49.546;7.906;2022-10-22T07:18:42;10.30;99.90
20057;DHT22;10189;49.546;7.906;2022-10-22T07:21:10;10.40;99.90
20057;DHT22;10189;49.546;7.906;2022-10-22T07:23:37;10.50;99.90
20057;DHT22;10189;49.546;7.906;2022-10-22T07:26:04;10.60;99.90
20057;DHT22;10189;49.546;7.906;2022-10-22T07:28:32;10.60;99.90
20057;DHT22;10189;49.546;7.906;2022-10-22T07:30:59;10.70;99.90
20057;DHT22;10189;49.546;7.906;2022-10-22T07:33:26;10.90;99.90
20057;DHT22;10189;49.546;7.906;2022-10-22T07:35:57;11.10;99.90
20057;DHT22;10189;49.546;7.906;2022-10-22T07:38:25;11.30;99.90
20057;DHT22;10189;49.546;7.906;2022-10-22T07:40:51;11.60;99.90
20057;DHT22;10189;49.546;7.906;2022-10-22T07:43:16;11.80;99.90
20057;DHT22;10189;49.546;7.906;2022-10-22T07:45:42;12.00;99.90
20057;DHT22;10189;49.546;7.906;2022-10-22T07:48:08;12.20;99.80
20057;DHT22;10189;49.546;7.906;2022-10-22T07:50:34;12.30;98.10
20057;DHT22;10189;49.546;7.906;2022-10-22T07:53:00;12.40;96.20
20057;DHT22;10189;49.546;7.906;2022-10-22T07:55:26;12.40;96.20
20057;DHT22;10189;49.546;7.906;2022-10-22T07:57:52;12.50;96.00
20057;DHT22;10189;49.546;7.906;2022-10-22T08:00:18;12.70;94.40
20057;DHT22;10189;49.546;7.906;2022-10-22T08:02:44;12.70;93.80
20057;DHT22;10189;49.546;7.906;2022-10-22T08:05:10;12.80;94.40
20057;DHT22;10189;49.546;7.906;2022-10-22T08:07:38;12.80;93.80
20057;DHT22;10189;49.546;7.906;2022-10-22T08:10:05;12.90;92.40
20057;DHT22;10189;49.546;7.906;2022-10-22T08:12:32;13.10;92.90
20057;DHT22;10189;49.546;7.906;2022-10-22T08:14:58;13.10;91.70
20057;DHT22;10189;49.546;7.906;2022-10-22T08:17:26;13.20;92.40
20057;DHT22;10189;49.546;7.906;2022-10-22T08:19:52;13.20;90.80
20057;DHT22;10189;49.546;7.906;2022-10-22T08:22:18;13.40;92.70
20057;DHT22;10189;49.546;7.906;2022-10-22T08:24:44;13.50;92.40
20057;DHT22;10189;49.546;7.906;2022-10-22T08:27:11;13.70;90.30
20057;DHT22;10189;49.546;7.906;2022-10-22T08:29:37;13.80;90.10
20057;DHT22;10189;49.546;7.906;2022-10-22T08:32:03;13.90;89.00
20057;DHT22;10189;49.546;7.906;2022-10-22T08:34:30;14.00;90.60
20057;DHT22;10189;49.546;7.906;2022-10-22T08:36:56;14.10;90.20
20057;DHT22;10189;49.546;7.906;2022-10-22T08:39:22;14.10;88.20
20057;DHT22;10189;49.546;7.906;2022-10-22T08:50:37;14.00;89.70
20057;DHT22;10189;49.546;7.906;2022-10-22T08:53:13;14.20;89.40
20057;DHT22;10189;49.546;7.906;2022-10-22T08:55:41;14.30;87.60
20057;DHT22;10189;49.546;7.906;2022-10-22T08:58:22;14.40;88.80
20057;DHT22;10189;49.546;7.906;2022-10-22T09:03:36;14.50;86.20
20057;DHT22;10189;49.546;7.906;2022-10-22T09:06:17;14.50;86.60
20057;DHT22;10189;49.546;7.906;2022-10-22T09:08:45;14.50;87.40
20057;DHT22;10189;49.546;7.906;2022-10-22T09:13:40;14.80;86.50
20057;DHT22;10189;49.546;7.906;2022-10-22T09:16:15;14.90;85.30
20057;DHT22;10189;49.546;7.906;2022-10-22T09:21:45;15.30;85.00
20057;DHT22;10189;49.546;7.906;2022-10-22T09:24:45;15.40;84.70
20057;DHT22;10189;49.546;7.906;2022-10-22T09:27:26;15.50;84.90
20057;DHT22;10189;49.546;7.906;2022-10-22T09:29:54;15.60;82.10
20057;DHT22;10189;49.546;7.906;2022-10-22T09:32:21;15.60;84.40
20057;DHT22;10189;49.546;7.906;2022-10-22T09:34:48;15.60;83.60
20057;DHT22;10189;49.546;7.906;2022-10-22T09:37:21;15.70;83.60
20057;DHT22;10189;49.546;7.906;2022-10-22T09:39:51;15.70;83.70
20057;DHT22;10189;49.546;7.906;2022-10-22T09:42:19;15.80;82.70
20057;DHT22;10189;49.546;7.906;2022-10-22T09:45:04;16.00;83.20
20057;DHT22;10189;49.546;7.906;2022-10-22T09:47:38;16.30;82.30
20057;DHT22;10189;49.546;7.906;2022-10-22T09:55:29;16.70;78.10
20057;DHT22;10189;49.546;7.906;2022-10-22T09:57:57;16.80;78.60
20057;DHT22;10189;49.546;7.906;2022-10-22T10:00:25;16.80;77.60
20057;DHT22;10189;49.546;7.906;2022-10-22T10:02:59;16.80;78.40
20057;DHT22;10189;49.546;7.906;2022-10-22T10:05:34;16.80;78.00
20057;DHT22;10189;49.546;7.906;2022-10-22T10:08:12;16.80;75.30
20057;DHT22;10189;49.546;7.906;2022-10-22T10:10:52;16.80;78.80
20057;DHT22;10189;49.546;7.906;2022-10-22T10:16:37;16.90;76.10
20057;DHT22;10189;49.546;7.906;2022-10-22T10:19:26;16.80;76.70
20057;DHT22;10189;49.546;7.906;2022-10-22T10:27:39;16.70;76.20
20057;DHT22;10189;49.546;7.906;2022-10-22T10:30:18;16.80;77.30
20057;DHT22;10189;49.546;7.906;2022-10-22T10:40:57;16.90;71.70
20057;DHT22;10189;49.546;7.906;2022-10-22T10:48:59;16.80;72.50
20057;DHT22;10189;49.546;7.906;2022-10-22T10:52:03;16.80;73.40
20057;DHT22;10189;49.546;7.906;2022-10-22T11:00:42;17.20;72.70
20057;DHT22;10189;49.546;7.906;2022-10-22T11:06:52;17.60;70.50
20057;DHT22;10189;49.546;7.906;2022-10-22T11:09:29;17.80;70.20
20057;DHT22;10189;49.546;7.906;2022-10-22T11:12:04;18.10;69.80
20057;DHT22;10189;49.546;7.906;2022-10-22T11:14:53;18.20;69.60
20057;DHT22;10189;49.546;7.906;2022-10-22T11:17:28;18.30;66.50
20057;DHT22;10189;49.546;7.906;2022-10-22T11:20:19;18.30;68.40
20057;DHT22;10189;49.546;7.906;2022-10-22T11:23:00;18.30;67.00
20057;DHT22;10189;49.546;7.906;2022-10-22T11:25:39;18.30;67.30
20057;DHT22;10189;49.546;7.906;2022-10-22T11:28:13;18.30;67.10
20057;DHT22;10189;49.546;7.906;2022-10-22T11:30:48;18.40;68.20
20057;DHT22;10189;49.546;7.906;2022-10-22T11:33:38;18.30;67.10
20057;DHT22;10189;49.546;7.906;2022-10-22T11:36:12;18.20;67.70
20057;DHT22;10189;49.546;7.906;2022-10-22T11:38:40;18.10;69.00
20057;DHT22;10189;49.546;7.906;2022-10-22T11:41:12;18.00;69.10
20057;DHT22;10189;49.546;7.906;2022-10-22T11:44:16;17.90;69.90
20057;DHT22;10189;49.546;7.906;2022-10-22T11:46:57;17.90;70.40
20057;DHT22;10189;49.546;7.906;2022-10-22T11:49:44;17.70;68.30
20057;DHT22;10189;49.546;7.906;2022-10-22T11:55:41;17.70;67.40
20057;DHT22;10189;49.546;7.906;2022-10-22T12:01:20;17.80;66.50
20057;DHT22;10189;49.546;7.906;2022-10-22T12:04:21;17.80;67.40
20057;DHT22;10189;49.546;7.906;2022-10-22T12:10:18;18.00;67.40
20057;DHT22;10189;49.546;7.906;2022-10-22T12:12:55;18.00;66.60
20057;DHT22;10189;49.546;7.906;2022-10-22T12:15:26;17.90;66.40
20057;DHT22;10189;49.546;7.906;2022-10-22T12:17:58;17.90;66.60
20057;DHT22;10189;49.546;7.906;2022-10-22T12:20:27;17.80;65.50
20057;DHT22;10189;49.546;7.906;2022-10-22T12:22:55;17.80;66.50
20057;DHT22;10189;49.546;7.906;2022-10-22T12:25:24;17.80;67.20
20057;DHT22;10189;49.546;7.906;2022-10-22T12:27:58;17.90;66.10
20057;DHT22;10189;49.546;7.906;2022-10-22T12:30:28;18.00;66.50
20057;DHT22;10189;49.546;7.906;2022-10-22T12:32:58;18.00;66.80
20057;DHT22;10189;49.546;7.906;2022-10-22T12:35:30;18.00;64.20
20057;DHT22;10189;49.546;7.906;2022-10-22T12:38:21;18.00;64.60
20057;DHT22;10189;49.546;7.906;2022-10-22T12:40:49;17.90;65.40
20057;DHT22;10189;49.546;7.906;2022-10-22T12:43:25;17.90;66.60
20057;DHT22;10189;49.546;7.906;2022-10-22T12:45:55;18.00;66.30
20057;DHT22;10189;49.546;7.906;2022-10-22T12:48:26;18.10;65.60
20057;DHT22;10189;49.546;7.906;2022-10-22T12:50:59;18.20;66.30
20057;DHT22;10189;49.546;7.906;2022-10-22T12:55:56;18.30;63.70
20057;DHT22;10189;49.546;7.906;2022-10-22T12:58:26;18.30;64.50
20057;DHT22;10189;49.546;7.906;2022-10-22T13:01:03;18.20;65.00
20057;DHT22;10189;49.546;7.906;2022-10-22T13:03:37;18.10;65.40
20057;DHT22;10189;49.546;7.906;2022-10-22T13:08:56;18.10;66.50
20057;DHT22;10189;49.546;7.906;2022-10-22T13:11:39;18.00;65.10
20057;DHT22;10189;49.546;7.906;2022-10-22T13:14:28;18.00;65.80
20057;DHT22;10189;49.546;7.906;2022-10-22T13:17:13;18.10;67.90
20057;DHT22;10189;49.546;7.906;2022-10-22T13:22:50;18.20;65.60
20057;DHT22;10189;49.546;7.906;2022-10-22T13:25:40;18.20;64.80
20057;DHT22;10189;49.546;7.906;2022-10-22T13:30:34;18.40;65.50
20057;DHT22;10189;49.546;7.906;2022-10-22T13:33:16;18.50;65.20
20057;DHT22;10189;49.546;7.906;2022-10-22T13:35:48;18.50;64.10
20057;DHT22;10189;49.546;7.906;2022-10-22T13:38:19;18.60;65.20
20057;DHT22;10189;49.546;7.906;2022-10-22T13:40:47;18.60;64.40
20057;DHT22;10189;49.546;7.906;2022-10-22T13:43:14;18.70;64.00
20057;DHT22;10189;49.546;7.906;2022-10-22T13:45:41;18.70;65.20
20057;DHT22;10189;49.546;7.906;2022-10-22T13:48:15;18.70;62.50
20057;DHT22;10189;49.546;7.906;2022-10-22T13:50:44;18.60;63.20
20057;DHT22;10189;49.546;7.906;2022-10-22T13:53:24;18.50;63.10
20057;DHT22;10189;49.546;7.906;2022-10-22T13:55:52;18.50;61.50
20057;DHT22;10189;49.546;7.906;2022-10-22T13:58:22;18.40;62.70
20057;DHT22;10189;49.546;7.906;2022-10-22T14:00:53;18.40;63.40
20057;DHT22;10189;49.546;7.906;2022-10-22T14:03:27;18.40;64.30
20057;DHT22;10189;49.546;7.906;2022-10-22T14:05:57;18.40;63.90
20057;DHT22;10189;49.546;7.906;2022-10-22T14:08:24;18.40;64.30
20057;DHT22;10189;49.546;7.906;2022-10-22T14:10:51;18.40;63.80
20057;DHT22;10189;49.546;7.906;2022-10-22T14:13:18;18.40;61.90
20057;DHT22;10189;49.546;7.906;2022-10-22T14:15:47;18.20;64.80
20057;DHT22;10189;49.546;7.906;2022-10-22T14:18:22;18.10;65.90
20057;DHT22;10189;49.546;7.906;2022-10-22T14:20:57;18.00;65.60
20057;DHT22;10189;49.546;7.906;2022-10-22T14:23:27;17.80;67.10
20057;DHT22;10189;49.546;7.906;2022-10-22T14:25:55;17.70;67.70
20057;DHT22;10189;49.546;7.906;2022-10-22T14:28:21;17.60;66.40
20057;DHT22;10189;49.546;7.906;2022-10-22T14:30:48;17.60;66.80
20057;DHT22;10189;49.546;7.906;2022-10-22T14:33:24;17.60;65.50
20057;DHT22;10189;49.546;7.906;2022-10-22T14:35:52;17.50;66.30
20057;DHT22;10189;49.546;7.906;2022-10-22T14:38:18;17.50;68.10
20057;DHT22;10189;49.546;7.906;2022-10-22T14:40:45;17.60;65.70
20057;DHT22;10189;49.546;7.906;2022-10-22T14:43:25;17.60;67.10
20057;DHT22;10189;49.546;7.906;2022-10-22T14:45:53;17.70;66.30
20057;DHT22;10189;49.546;7.906;2022-10-22T14:48:19;17.70;68.60
20057;DHT22;10189;49.546;7.906;2022-10-22T14:50:46;17.80;69.40
20057;DHT22;10189;49.546;7.906;2022-10-22T14:53:13;17.80;69.30
20057;DHT22;10189;49.546;7.906;2022-10-22T14:55:42;17.80;66.60
20057;DHT22;10189;49.546;7.906;2022-10-22T14:58:09;17.80;67.80
20057;DHT22;10189;49.546;7.906;2022-10-22T15:00:36;17.80;68.90
20057;DHT22;10189;49.546;7.906;2022-10-22T15:03:04;17.80;69.50
20057;DHT22;10189;49.546;7.906;2022-10-22T15:05:30;17.80;70.70
20057;DHT22;10189;49.546;7.906;2022-10-22T15:07:57;17.80;70.30
20057;DHT22;10189;49.546;7.906;2022-10-22T15:10:24;17.80;70.20
20057;DHT22;10189;49.546;7.906;2022-10-22T15:12:50;17.80;70.40
20057;DHT22;10189;49.546;7.906;2022-10-22T15:15:16;17.80;71.50
20057;DHT22;10189;49.546;7.906;2022-10-22T15:17:42;17.60;72.20
20057;DHT22;10189;49.546;7.906;2022-10-22T15:20:08;17.60;72.70
20057;DHT22;10189;49.546;7.906;2022-10-22T15:22:34;17.60;72.80
20057;DHT22;10189;49.546;7.906;2022-10-22T15:25:05;17.50;72.60
20057;DHT22;10189;49.546;7.906;2022-10-22T15:27:33;17.50;73.00
20057;DHT22;10189;49.546;7.906;2022-10-22T15:29:59;17.40;73.30
20057;DHT22;10189;49.546;7.906;2022-10-22T15:32:26;17.40;73.60
20057;DHT22;10189;49.546;7.906;2022-10-22T15:34:54;17.30;73.40
20057;DHT22;10189;49.546;7.906;2022-10-22T15:37:21;17.30;74.20
20057;DHT22;10189;49.546;7.906;2022-10-22T15:39:47;17.20;76.60
20057;DHT22;10189;49.546;7.906;2022-10-22T15:42:13;17.00;77.00
20057;DHT22;10189;49.546;7.906;2022-10-22T15:44:40;16.80;77.50
20057;DHT22;10189;49.546;7.906;2022-10-22T15:47:06;16.60;77.70
20057;DHT22;10189;49.546;7.906;2022-10-22T15:49:35;16.40;78.90
20057;DHT22;10189;49.546;7.906;2022-10-22T15:52:04;16.20;79.70
20057;DHT22;10189;49.546;7.906;2022-10-22T15:54:31;15.90;80.80
20057;DHT22;10189;49.546;7.906;2022-10-22T15:56:59;15.70;82.00
20057;DHT22;10189;49.546;7.906;2022-10-22T15:59:27;15.50;82.90
20057;DHT22;10189;49.546;7.906;2022-10-22T16:01:53;15.30;83.50
20057;DHT22;10189;49.546;7.906;2022-10-22T16:04:19;15.10;84.40
20057;DHT22;10189;49.546;7.906;2022-10-22T16:06:47;14.90;85.20
20057;DHT22;10189;49.546;7.906;2022-10-22T16:09:22;14.70;86.00
20057;DHT22;10189;49.546;7.906;2022-10-22T16:11:50;14.50;86.60
20057;DHT22;10189;49.546;7.906;2022-10-22T16:14:18;14.40;87.20
20057;DHT22;10189;49.546;7.906;2022-10-22T16:16:48;14.20;87.90
20057;DHT22;10189;49.546;7.906;2022-10-22T16:19:17;14.10;88.70
20057;DHT22;10189;49.546;7.906;2022-10-22T16:21:45;14.00;89.40
20057;DHT22;10189;49.546;7.906;2022-10-22T16:24:12;13.80;89.90
20057;DHT22;10189;49.546;7.906;2022-10-22T16:26:38;13.70;90.70
20057;DHT22;10189;49.546;7.906;2022-10-22T16:29:04;13.60;91.90
20057;DHT22;10189;49.546;7.906;2022-10-22T16:31:31;13.40;92.50
20057;DHT22;10189;49.546;7.906;2022-10-22T16:33:57;13.30;93.20
20057;DHT22;10189;49.546;7.906;2022-10-22T16:36:23;13.10;93.90
20057;DHT22;10189;49.546;7.906;2022-10-22T16:38:49;13.00;94.60
20057;DHT22;10189;49.546;7.906;2022-10-22T16:41:17;12.90;95.30
20057;DHT22;10189;49.546;7.906;2022-10-22T16:43:47;12.80;96.30
20057;DHT22;10189;49.546;7.906;2022-10-22T16:46:16;12.70;97.00
20057;DHT22;10189;49.546;7.906;2022-10-22T16:48:50;12.60;97.40
20057;DHT22;10189;49.546;7.906;2022-10-22T16:51:20;12.60;98.30
20057;DHT22;10189;49.546;7.906;2022-10-22T16:53:53;12.50;98.70
20057;DHT22;10189;49.546;7.906;2022-10-22T16:56:20;12.40;99.80
20057;DHT22;10189;49.546;7.906;2022-10-22T16:58:50;12.70;99.90
20057;DHT22;10189;49.546;7.906;2022-10-22T17:01:20;12.80;99.90
20057;DHT22;10189;49.546;7.906;2022-10-22T17:03:48;12.70;99.90
20057;DHT22;10189;49.546;7.906;2022-10-22T17:06:14;12.70;99.90
20057;DHT22;10189;49.546;7.906;2022-10-22T17:08:41;12.60;99.90
20057;DHT22;10189;49.546;7.906;2022-10-22T17:11:16;12.50;99.90
20057;DHT22;10189;49.546;7.906;2022-10-22T17:13:46;12.40;99.90
20057;DHT22;10189;49.546;7.906;2022-10-22T17:16:15;12.30;99.90
20057;DHT22;10189;49.546;7.906;2022-10-22T17:18:43;12.20;99.90
20057;DHT22;10189;49.546;7.906;2022-10-22T17:21:11;12.10;99.90
20057;DHT22;10189;49.546;7.906;2022-10-22T17:23:37;12.00;99.90
20057;DHT22;10189;49.546;7.906;2022-10-22T17:26:06;11.90;99.90
20057;DHT22;10189;49.546;7.906;2022-10-22T17:28:34;11.90;99.90
20057;DHT22;10189;49.546;7.906;2022-10-22T17:33:53;11.80;99.90
20057;DHT22;10189;49.546;7.906;2022-10-22T17:36:25;11.70;99.90
20057;DHT22;10189;49.546;7.906;2022-10-22T17:38:54;11.70;99.90